sensor_id;sensor_type;location;lat;lon;timestamp;pressure;altitude;pressure_sealevel;temperature;humidity
7748;BME280;3918;42.564;23.164;2022-09-09T05:01:51;-11650.84;;;-142.29;82.29
7748;BME280;3918;42.564;23.164;2022-09-09T05:04:21;-11650.84;;;-142.29;78.69
7748;BME280;3918;42.564;23.164;2022-09-09T05:06:47;-11650.84;;;-142.29;74.61
7748;BME280;3918;42.564;23.164;2022-09-09T05:09:14;-11650.84;;;-142.29;72.30
7748;BME280;3918;42.564;23.164;2022-09-09T05:11:41;-11650.84;;;-142.29;70.36
7748;BME280;3918;42.564;23.164;2022-09-09T05:14:09;-11650.84;;;-142.29;68.90
7748;BME280;3918;42.564;23.164;2022-09-09T05:16:36;-11650.84;;;-142.29;68.00
7748;BME280;3918;42.564;23.164;2022-09-09T05:19:04;-11650.84;;;-142.29;65.41
7748;BME280;3918;42.564;23.164;2022-09-09T05:21:33;-11650.84;;;-142.29;63.56
7748;BME280;3918;42.564;23.164;2022-09-09T05:24:00;-11650.84;;;-142.29;60.37
7748;BME280;3918;42.564;23.164;2022-09-09T05:26:27;-11650.84;;;-142.29;60.26
7748;BME280;3918;42.564;23.164;2022-09-09T05:28:54;-11650.84;;;-142.29;58.09
7748;BME280;3918;42.564;23.164;2022-09-09T05:31:22;-11650.84;;;-142.29;57.02
7748;BME280;3918;42.564;23.164;2022-09-09T05:33:51;-11650.84;;;-142.29;57.04
7748;BME280;3918;42.564;23.164;2022-09-09T05:36:20;-11650.84;;;-142.29;55.98
7748;BME280;3918;42.564;23.164;2022-09-09T05:38:48;-11650.84;;;-142.29;54.38
7748;BME280;3918;42.564;23.164;2022-09-09T05:41:16;-11650.84;;;-142.29;53.53
7748;BME280;3918;42.564;23.164;2022-09-09T05:43:44;-11650.84;;;-142.29;52.83
7748;BME280;3918;42.564;23.164;2022-09-09T05:46:13;-11650.84;;;-142.29;53.60
7748;BME280;3918;42.564;23.164;2022-09-09T05:48:42;-11650.84;;;-142.29;53.69
7748;BME280;3918;42.564;23.164;2022-09-09T05:51:10;-11650.84;;;-142.29;54.11
7748;BME280;3918;42.564;23.164;2022-09-09T05:53:39;-11650.84;;;-142.29;52.60
7748;BME280;3918;42.564;23.164;2022-09-09T05:56:08;-11650.84;;;-142.29;52.57
7748;BME280;3918;42.564;23.164;2022-09-09T05:58:36;-11650.84;;;-142.29;50.24
7748;BME280;3918;42.564;23.164;2022-09-09T06:01:04;-11650.84;;;-142.29;49.14
7748;BME280;3918;42.564;23.164;2022-09-09T06:03:32;-11650.84;;;-142.29;48.09
7748;BME280;3918;42.564;23.164;2022-09-09T06:06:00;-11650.84;;;-142.29;46.53
7748;BME280;3918;42.564;23.164;2022-09-09T06:08:27;-11650.84;;;-142.29;45.49
7748;BME280;3918;42.564;23.164;2022-09-09T06:11:01;-11650.84;;;-142.29;43.32
7748;BME280;3918;42.564;23.164;2022-09-09T06:13:28;-11650.84;;;-142.29;44.09
7748;BME280;3918;42.564;23.164;2022-09-09T06:15:55;-11650.84;;;-142.29;44.04
7748;BME280;3918;42.564;23.164;2022-09-09T06:18:21;-11650.84;;;-142.29;43.00
7748;BME280;3918;42.564;23.164;2022-09-09T06:20:56;-11650.84;;;-142.29;41.72
7748;BME280;3918;42.564;23.164;2022-09-09T06:23:24;-11650.84;;;-142.29;40.90
7748;BME280;3918;42.564;23.164;2022-09-09T06:25:51;-11650.84;;;-142.29;41.07
7748;BME280;3918;42.564;23.164;2022-09-09T06:28:19;-11650.84;;;-142.29;41.61
7748;BME280;3918;42.564;23.164;2022-09-09T06:30:46;-11650.84;;;-142.29;41.69
7748;BME280;3918;42.564;23.164;2022-09-09T06:33:12;-11650.84;;;-142.29;41.38
7748;BME280;3918;42.564;23.164;2022-09-09T06:35:39;-11650.84;;;-142.29;43.36
7748;BME280;3918;42.564;23.164;2022-09-09T06:38:06;-11650.84;;;-142.29;41.95
7748;BME280;3918;42.564;23.164;2022-09-09T06:40:35;-11650.84;;;-142.29;42.21
7748;BME280;3918;42.564;23.164;2022-09-09T06:43:02;-11650.84;;;-142.29;42.88
7748;BME280;3918;42.564;23.164;2022-09-09T06:45:30;-11650.84;;;-142.29;42.91
7748;BME280;3918;42.564;23.164;2022-09-09T06:47:57;-11650.84;;;-142.29;41.77
7748;BME280;3918;42.564;23.164;2022-09-09T06:50:24;-11650.84;;;-142.29;42.52
7748;BME280;3918;42.564;23.164;2022-09-09T06:52:50;-11650.84;;;-142.29;42.07
7748;BME280;3918;42.564;23.164;2022-09-09T06:55:18;-11650.84;;;-142.29;41.18
7748;BME280;3918;42.564;23.164;2022-09-09T06:57:46;-11650.84;;;-142.29;40.67
7748;BME280;3918;42.564;23.164;2022-09-09T07:00:14;-11650.84;;;-142.29;40.16
7748;BME280;3918;42.564;23.164;2022-09-09T07:02:42;-11650.84;;;-142.29;40.99
7748;BME280;3918;42.564;23.164;2022-09-09T07:05:10;-11650.84;;;-142.29;41.17
7748;BME280;3918;42.564;23.164;2022-09-09T07:07:37;-11650.84;;;-142.29;39.73
7748;BME280;3918;42.564;23.164;2022-09-09T07:10:04;-11650.84;;;-142.29;40.82
7748;BME280;3918;42.564;23.164;2022-09-09T07:12:31;-11650.84;;;-142.29;41.64
7748;BME280;3918;42.564;23.164;2022-09-09T07:14:57;-11650.84;;;-142.29;41.89
7748;BME280;3918;42.564;23.164;2022-09-09T07:17:24;-11650.84;;;-142.29;41.58
7748;BME280;3918;42.564;23.164;2022-09-09T07:19:52;-11650.84;;;-142.29;42.34
7748;BME280;3918;42.564;23.164;2022-09-09T07:22:19;-11650.84;;;-142.29;43.43
7748;BME280;3918;42.564;23.164;2022-09-09T07:24:46;-11650.84;;;-142.29;41.87
7748;BME280;3918;42.564;23.164;2022-09-09T07:27:14;-11650.84;;;-142.29;42.79
7748;BME280;3918;42.564;23.164;2022-09-09T07:29:41;-11650.84;;;-142.29;43.10
7748;BME280;3918;42.564;23.164;2022-09-09T07:32:08;-11650.84;;;-142.29;42.15
7748;BME280;3918;42.564;23.164;2022-09-09T07:34:35;-11650.84;;;-142.29;41.51
7748;BME280;3918;42.564;23.164;2022-09-09T07:37:03;-11650.84;;;-142.29;42.04
7748;BME280;3918;42.564;23.164;2022-09-09T07:39:30;-11650.84;;;-142.29;41.29
7748;BME280;3918;42.564;23.164;2022-09-09T07:41:57;-11650.84;;;-142.29;41.89
7748;BME280;3918;42.564;23.164;2022-09-09T07:44:25;-11650.84;;;-142.29;42.23
7748;BME280;3918;42.564;23.164;2022-09-09T07:46:52;-11650.84;;;-142.29;41.79
7748;BME280;3918;42.564;23.164;2022-09-09T07:49:19;-11650.84;;;-142.29;42.83
7748;BME280;3918;42.564;23.164;2022-09-09T07:51:47;-11650.84;;;-142.29;42.55
7748;BME280;3918;42.564;23.164;2022-09-09T07:54:17;-11650.84;;;-142.29;41.52
7748;BME280;3918;42.564;23.164;2022-09-09T07:56:46;-11650.84;;;-142.29;43.04
7748;BME280;3918;42.564;23.164;2022-09-09T07:59:13;-11650.84;;;-142.29;43.08
7748;BME280;3918;42.564;23.164;2022-09-09T08:01:42;-11650.84;;;-142.29;45.81
7748;BME280;3918;42.564;23.164;2022-09-09T08:04:10;-11650.84;;;-142.29;48.36
7748;BME280;3918;42.564;23.164;2022-09-09T08:06:42;-11650.84;;;-142.29;52.25
7748;BME280;3918;42.564;23.164;2022-09-09T08:09:09;-11650.84;;;-142.29;53.42
7748;BME280;3918;42.564;23.164;2022-09-09T08:11:38;-11650.84;;;-142.29;55.60
7748;BME280;3918;42.564;23.164;2022-09-09T08:14:05;-11650.84;;;-142.29;55.62
7748;BME280;3918;42.564;23.164;2022-09-09T08:16:35;-11650.84;;;-142.29;56.96
7748;BME280;3918;42.564;23.164;2022-09-09T08:19:03;-11650.84;;;-142.29;59.03
7748;BME280;3918;42.564;23.164;2022-09-09T08:21:32;-11650.84;;;-142.29;61.27
7748;BME280;3918;42.564;23.164;2022-09-09T08:24:00;-11650.84;;;-142.29;64.68
7748;BME280;3918;42.564;23.164;2022-09-09T08:26:28;-11650.84;;;-142.29;66.67
7748;BME280;3918;42.564;23.164;2022-09-09T08:28:58;-11650.84;;;-142.29;67.24
7748;BME280;3918;42.564;23.164;2022-09-09T08:31:26;-11650.84;;;-142.29;70.24
7748;BME280;3918;42.564;23.164;2022-09-09T08:33:55;-11650.84;;;-142.29;65.74
7748;BME280;3918;42.564;23.164;2022-09-09T08:36:24;-11650.84;;;-142.29;62.94
7748;BME280;3918;42.564;23.164;2022-09-09T08:38:52;-11650.84;;;-142.29;63.80
7748;BME280;3918;42.564;23.164;2022-09-09T08:44:31;-11650.84;;;-142.29;62.59
7748;BME280;3918;42.564;23.164;2022-09-09T08:47:08;-11650.84;;;-142.29;61.40
7748;BME280;3918;42.564;23.164;2022-09-09T08:49:50;-11650.84;;;-142.29;64.26
7748;BME280;3918;42.564;23.164;2022-09-09T08:52:25;-11650.84;;;-142.29;63.45
7748;BME280;3918;42.564;23.164;2022-09-09T08:54:54;-11650.84;;;-142.29;63.18
7748;BME280;3918;42.564;23.164;2022-09-09T08:57:25;-11650.84;;;-142.29;63.03
7748;BME280;3918;42.564;23.164;2022-09-09T08:59:55;-11650.84;;;-142.29;62.52
7748;BME280;3918;42.564;23.164;2022-09-09T09:02:26;-11650.84;;;-142.29;59.85
7748;BME280;3918;42.564;23.164;2022-09-09T09:05:08;-11650.84;;;-142.29;61.49
7748;BME280;3918;42.564;23.164;2022-09-09T09:07:49;-11650.84;;;-142.29;59.90
7748;BME280;3918;42.564;23.164;2022-09-09T09:10:29;-11650.84;;;-142.29;61.69
7748;BME280;3918;42.564;23.164;2022-09-09T09:13:02;-11650.84;;;-142.29;61.96
7748;BME280;3918;42.564;23.164;2022-09-09T09:15:36;-11650.84;;;-142.29;63.19
7748;BME280;3918;42.564;23.164;2022-09-09T09:18:04;-11650.84;;;-142.29;64.40
7748;BME280;3918;42.564;23.164;2022-09-09T09:20:37;-11650.84;;;-142.29;64.63
7748;BME280;3918;42.564;23.164;2022-09-09T09:23:13;-11650.84;;;-142.29;66.22
7748;BME280;3918;42.564;23.164;2022-09-09T09:25:44;-11650.84;;;-142.29;68.12
7748;BME280;3918;42.564;23.164;2022-09-09T09:28:15;-11650.84;;;-142.29;67.27
7748;BME280;3918;42.564;23.164;2022-09-09T09:30:49;-11650.84;;;-142.29;68.16
7748;BME280;3918;42.564;23.164;2022-09-09T09:33:23;-11650.84;;;-142.29;67.63
7748;BME280;3918;42.564;23.164;2022-09-09T09:35:52;-11650.84;;;-142.29;68.11
7748;BME280;3918;42.564;23.164;2022-09-09T09:38:21;-11650.84;;;-142.29;67.26
7748;BME280;3918;42.564;23.164;2022-09-09T09:40:49;-11650.84;;;-142.29;65.00
7748;BME280;3918;42.564;23.164;2022-09-09T09:43:21;-11650.84;;;-142.29;67.21
7748;BME280;3918;42.564;23.164;2022-09-09T09:45:51;-11650.84;;;-142.29;66.76
7748;BME280;3918;42.564;23.164;2022-09-09T09:48:18;-11650.84;;;-142.29;65.79
7748;BME280;3918;42.564;23.164;2022-09-09T09:50:50;-11650.84;;;-142.29;64.17
7748;BME280;3918;42.564;23.164;2022-09-09T09:53:21;-11650.84;;;-142.29;64.90
7748;BME280;3918;42.564;23.164;2022-09-09T09:55:55;-11650.84;;;-142.29;65.08
7748;BME280;3918;42.564;23.164;2022-09-09T09:58:22;-11650.84;;;-142.29;66.00
7748;BME280;3918;42.564;23.164;2022-09-09T10:00:53;-11650.84;;;-142.29;67.20
7748;BME280;3918;42.564;23.164;2022-09-09T10:03:23;-11650.84;;;-142.29;67.41
7748;BME280;3918;42.564;23.164;2022-09-09T10:05:51;-11650.84;;;-142.29;69.82
7748;BME280;3918;42.564;23.164;2022-09-09T10:08:18;-11650.84;;;-142.29;71.85
7748;BME280;3918;42.564;23.164;2022-09-09T10:13:42;-11650.84;;;-142.29;73.89
7748;BME280;3918;42.564;23.164;2022-09-09T10:16:24;-11650.84;;;-142.29;75.54
7748;BME280;3918;42.564;23.164;2022-09-09T10:19:00;-11650.84;;;-142.29;75.70
7748;BME280;3918;42.564;23.164;2022-09-09T10:24:48;-11650.84;;;-142.29;76.68
7748;BME280;3918;42.564;23.164;2022-09-09T10:27:24;-11650.84;;;-142.29;77.45
7748;BME280;3918;42.564;23.164;2022-09-09T10:30:03;-11650.84;;;-142.29;79.32
7748;BME280;3918;42.564;23.164;2022-09-09T10:32:42;-11650.84;;;-142.29;80.09
7748;BME280;3918;42.564;23.164;2022-09-09T10:35:30;-11650.84;;;-142.29;80.47
7748;BME280;3918;42.564;23.164;2022-09-09T10:38:20;-11650.84;;;-142.29;80.09
7748;BME280;3918;42.564;23.164;2022-09-09T10:41:15;-11650.84;;;-142.29;81.53
7748;BME280;3918;42.564;23.164;2022-09-09T10:46:45;-11650.84;;;-142.29;82.73
7748;BME280;3918;42.564;23.164;2022-09-09T10:49:27;-11650.84;;;-142.29;83.22
7748;BME280;3918;42.564;23.164;2022-09-09T10:52:04;-11650.84;;;-142.29;85.10
7748;BME280;3918;42.564;23.164;2022-09-09T10:54:40;-11650.84;;;-142.29;84.95
7748;BME280;3918;42.564;23.164;2022-09-09T10:57:24;-11650.84;;;-142.29;83.78
7748;BME280;3918;42.564;23.164;2022-09-09T10:59:58;-11650.84;;;-142.29;81.66
7748;BME280;3918;42.564;23.164;2022-09-09T11:02:31;-11650.84;;;-142.29;81.34
7748;BME280;3918;42.564;23.164;2022-09-09T11:05:03;-11650.84;;;-142.29;81.58
7748;BME280;3918;42.564;23.164;2022-09-09T11:07:35;-11650.84;;;-142.29;82.11
7748;BME280;3918;42.564;23.164;2022-09-09T11:10:07;-11650.84;;;-142.29;82.51
7748;BME280;3918;42.564;23.164;2022-09-09T11:12:42;-11650.84;;;-142.29;83.31
7748;BME280;3918;42.564;23.164;2022-09-09T11:15:17;-11650.84;;;-142.29;81.69
7748;BME280;3918;42.564;23.164;2022-09-09T11:17:48;-11650.84;;;-142.29;82.43
7748;BME280;3918;42.564;23.164;2022-09-09T11:20:17;-11650.84;;;-142.29;82.08
7748;BME280;3918;42.564;23.164;2022-09-09T11:22:48;-11650.84;;;-142.29;81.42
7748;BME280;3918;42.564;23.164;2022-09-09T11:25:18;-11650.84;;;-142.29;80.10
7748;BME280;3918;42.564;23.164;2022-09-09T11:28:02;-11650.84;;;-142.29;80.56
7748;BME280;3918;42.564;23.164;2022-09-09T11:30:39;-11650.84;;;-142.29;88.03
7748;BME280;3918;42.564;23.164;2022-09-09T11:33:36;-11650.84;;;-142.29;86.37
7748;BME280;3918;42.564;23.164;2022-09-09T11:36:46;-11650.84;;;-142.29;83.12
7748;BME280;3918;42.564;23.164;2022-09-09T11:39:33;-11650.84;;;-142.29;83.11
7748;BME280;3918;42.564;23.164;2022-09-09T11:42:07;-11650.84;;;-142.29;84.12
7748;BME280;3918;42.564;23.164;2022-09-09T11:44:34;-11650.84;;;-142.29;82.91
7748;BME280;3918;42.564;23.164;2022-09-09T11:47:01;-11650.84;;;-142.29;82.74
7748;BME280;3918;42.564;23.164;2022-09-09T11:49:29;-11650.84;;;-142.29;84.03
7748;BME280;3918;42.564;23.164;2022-09-09T11:52:12;-11650.84;;;-142.29;82.32
7748;BME280;3918;42.564;23.164;2022-09-09T11:54:46;-11650.84;;;-142.29;80.29
7748;BME280;3918;42.564;23.164;2022-09-09T11:57:23;-11650.84;;;-142.29;77.08
7748;BME280;3918;42.564;23.164;2022-09-09T11:59:51;-11650.84;;;-142.29;77.80
7748;BME280;3918;42.564;23.164;2022-09-09T12:02:22;-11650.84;;;-142.29;77.82
7748;BME280;3918;42.564;23.164;2022-09-09T12:04:56;-11650.84;;;-142.29;80.50
7748;BME280;3918;42.564;23.164;2022-09-09T12:07:31;-11650.84;;;-142.29;80.12
7748;BME280;3918;42.564;23.164;2022-09-09T12:10:02;-11650.84;;;-142.29;79.84
7748;BME280;3918;42.564;23.164;2022-09-09T12:12:32;-11650.84;;;-142.29;79.90
7748;BME280;3918;42.564;23.164;2022-09-09T12:15:15;-11650.84;;;-142.29;82.02
7748;BME280;3918;42.564;23.164;2022-09-09T12:17:46;-11650.84;;;-142.29;81.63
7748;BME280;3918;42.564;23.164;2022-09-09T12:20:15;-11650.84;;;-142.29;81.02
7748;BME280;3918;42.564;23.164;2022-09-09T12:22:53;-11650.84;;;-142.29;83.10
7748;BME280;3918;42.564;23.164;2022-09-09T12:25:29;-11650.84;;;-142.29;81.52
7748;BME280;3918;42.564;23.164;2022-09-09T12:28:04;-11650.84;;;-142.29;81.46
7748;BME280;3918;42.564;23.164;2022-09-09T12:30:36;-11650.84;;;-142.29;82.29
7748;BME280;3918;42.564;23.164;2022-09-09T12:33:10;-11650.84;;;-142.29;81.70
7748;BME280;3918;42.564;23.164;2022-09-09T12:35:38;-11650.84;;;-142.29;80.98
7748;BME280;3918;42.564;23.164;2022-09-09T12:38:12;-11650.84;;;-142.29;81.21
7748;BME280;3918;42.564;23.164;2022-09-09T12:40:40;-11650.84;;;-142.29;80.94
7748;BME280;3918;42.564;23.164;2022-09-09T12:43:17;-11650.84;;;-142.29;81.47
7748;BME280;3918;42.564;23.164;2022-09-09T12:45:45;-11650.84;;;-142.29;80.40
7748;BME280;3918;42.564;23.164;2022-09-09T12:48:18;-11650.84;;;-142.29;82.44
7748;BME280;3918;42.564;23.164;2022-09-09T12:50:48;-11650.84;;;-142.29;81.41
7748;BME280;3918;42.564;23.164;2022-09-09T12:53:22;-11650.84;;;-142.29;82.19
7748;BME280;3918;42.564;23.164;2022-09-09T12:55:57;-11650.84;;;-142.29;83.18
7748;BME280;3918;42.564;23.164;2022-09-09T12:58:24;-11650.84;;;-142.29;82.75
7748;BME280;3918;42.564;23.164;2022-09-09T13:00:55;-11650.84;;;-142.29;83.27
7748;BME280;3918;42.564;23.164;2022-09-09T13:03:23;-11650.84;;;-142.29;84.10
7748;BME280;3918;42.564;23.164;2022-09-09T13:05:51;-11650.84;;;-142.29;84.40
7748;BME280;3918;42.564;23.164;2022-09-09T13:08:20;-11650.84;;;-142.29;84.70
7748;BME280;3918;42.564;23.164;2022-09-09T13:10:49;-11650.84;;;-142.29;85.63
7748;BME280;3918;42.564;23.164;2022-09-09T13:13:21;-11650.84;;;-142.29;89.09
7748;BME280;3918;42.564;23.164;2022-09-09T13:15:50;-11650.84;;;-142.29;89.39
7748;BME280;3918;42.564;23.164;2022-09-09T13:18:20;-11650.84;;;-142.29;91.83
7748;BME280;3918;42.564;23.164;2022-09-09T13:20:48;-11650.84;;;-142.29;92.03
7748;BME280;3918;42.564;23.164;2022-09-09T13:23:18;-11650.84;;;-142.29;92.73
7748;BME280;3918;42.564;23.164;2022-09-09T13:25:55;-11650.84;;;-142.29;93.26
7748;BME280;3918;42.564;23.164;2022-09-09T13:28:24;-11650.84;;;-142.29;91.28
7748;BME280;3918;42.564;23.164;2022-09-09T13:30:58;-11650.84;;;-142.29;92.42
7748;BME280;3918;42.564;23.164;2022-09-09T13:33:33;-11650.84;;;-142.29;93.75
7748;BME280;3918;42.564;23.164;2022-09-09T13:36:02;-11650.84;;;-142.29;95.46
7748;BME280;3918;42.564;23.164;2022-09-09T13:38:32;-11650.84;;;-142.29;94.47
7748;BME280;3918;42.564;23.164;2022-09-09T13:41:02;-11650.84;;;-142.29;95.49
7748;BME280;3918;42.564;23.164;2022-09-09T13:43:31;-11650.84;;;-142.29;98.95
7748;BME280;3918;42.564;23.164;2022-09-09T13:46:02;-11650.84;;;-142.29;98.48
7748;BME280;3918;42.564;23.164;2022-09-09T13:48:29;-11650.84;;;-142.29;96.66
7748;BME280;3918;42.564;23.164;2022-09-09T13:50:59;-11650.84;;;-142.29;95.07
7748;BME280;3918;42.564;23.164;2022-09-09T13:53:26;-11650.84;;;-142.29;95.33
7748;BME280;3918;42.564;23.164;2022-09-09T13:55:53;-11650.84;;;-142.29;94.64
7748;BME280;3918;42.564;23.164;2022-09-09T13:58:24;-11650.84;;;-142.29;95.57
7748;BME280;3918;42.564;23.164;2022-09-09T14:00:51;-11650.84;;;-142.29;95.91
7748;BME280;3918;42.564;23.164;2022-09-09T14:03:19;-11650.84;;;-142.29;92.95
7748;BME280;3918;42.564;23.164;2022-09-09T14:05:46;-11650.84;;;-142.29;92.56
7748;BME280;3918;42.564;23.164;2022-09-09T14:08:23;-11650.84;;;-142.29;92.02
7748;BME280;3918;42.564;23.164;2022-09-09T14:10:50;-11650.84;;;-142.29;91.66
7748;BME280;3918;42.564;23.164;2022-09-09T14:13:17;-11650.84;;;-142.29;92.09
7748;BME280;3918;42.564;23.164;2022-09-09T14:15:48;-11650.84;;;-142.29;93.50
7748;BME280;3918;42.564;23.164;2022-09-09T14:18:15;-11650.84;;;-142.29;93.54
7748;BME280;3918;42.564;23.164;2022-09-09T14:20:41;-11650.84;;;-142.29;95.17
7748;BME280;3918;42.564;23.164;2022-09-09T14:23:10;-11650.84;;;-142.29;95.42
7748;BME280;3918;42.564;23.164;2022-09-09T14:25:42;-11650.84;;;-142.29;93.35
7748;BME280;3918;42.564;23.164;2022-09-09T14:28:10;-11650.84;;;-142.29;93.32
7748;BME280;3918;42.564;23.164;2022-09-09T14:30:38;-11650.84;;;-142.29;92.91
7748;BME280;3918;42.564;23.164;2022-09-09T14:33:08;-11650.84;;;-142.29;92.73
7748;BME280;3918;42.564;23.164;2022-09-09T14:35:36;-11650.84;;;-142.29;91.37
7748;BME280;3918;42.564;23.164;2022-09-09T14:38:04;-11650.84;;;-142.29;91.38
7748;BME280;3918;42.564;23.164;2022-09-09T14:40:31;-11650.84;;;-142.29;89.58
7748;BME280;3918;42.564;23.164;2022-09-09T14:42:59;-11650.84;;;-142.29;90.79
7748;BME280;3918;42.564;23.164;2022-09-09T14:45:26;-11650.84;;;-142.29;90.56
7748;BME280;3918;42.564;23.164;2022-09-09T14:47:52;-11650.84;;;-142.29;91.23
7748;BME280;3918;42.564;23.164;2022-09-09T14:50:22;-11650.84;;;-142.29;91.70
7748;BME280;3918;42.564;23.164;2022-09-09T14:52:49;-11650.84;;;-142.29;92.08
7748;BME280;3918;42.564;23.164;2022-09-09T14:55:16;-11650.84;;;-142.29;92.72
7748;BME280;3918;42.564;23.164;2022-09-09T14:57:43;-11650.84;;;-142.29;95.17
7748;BME280;3918;42.564;23.164;2022-09-09T15:00:11;-11650.84;;;-142.29;96.02
7748;BME280;3918;42.564;23.164;2022-09-09T15:02:38;-11650.84;;;-142.29;95.35
7748;BME280;3918;42.564;23.164;2022-09-09T15:05:06;-11650.84;;;-142.29;94.81
7748;BME280;3918;42.564;23.164;2022-09-09T15:07:34;-11650.84;;;-142.29;93.95
7748;BME280;3918;42.564;23.164;2022-09-09T15:10:02;-11650.84;;;-142.29;94.24
7748;BME280;3918;42.564;23.164;2022-09-09T15:12:29;-11650.84;;;-142.29;93.40
7748;BME280;3918;42.564;23.164;2022-09-09T15:14:57;-11650.84;;;-142.29;92.06
7748;BME280;3918;42.564;23.164;2022-09-09T15:17:23;-11650.84;;;-142.29;92.73
7748;BME280;3918;42.564;23.164;2022-09-09T15:19:53;-11650.84;;;-142.29;91.83
7748;BME280;3918;42.564;23.164;2022-09-09T15:22:20;-11650.84;;;-142.29;91.99
7748;BME280;3918;42.564;23.164;2022-09-09T15:24:49;-11650.84;;;-142.29;92.67
7748;BME280;3918;42.564;23.164;2022-09-09T15:27:15;-11650.84;;;-142.29;92.80
7748;BME280;3918;42.564;23.164;2022-09-09T15:29:43;-11650.84;;;-142.29;93.07
7748;BME280;3918;42.564;23.164;2022-09-09T15:32:10;-11650.84;;;-142.29;92.99
7748;BME280;3918;42.564;23.164;2022-09-09T15:34:37;-11650.84;;;-142.29;93.68
7748;BME280;3918;42.564;23.164;2022-09-09T15:37:04;-11650.84;;;-142.29;94.44
7748;BME280;3918;42.564;23.164;2022-09-09T15:39:32;-11650.84;;;-142.29;96.06
7748;BME280;3918;42.564;23.164;2022-09-09T15:42:00;-11650.84;;;-142.29;97.54
7748;BME280;3918;42.564;23.164;2022-09-09T15:44:27;-11650.84;;;-142.29;98.39
7748;BME280;3918;42.564;23.164;2022-09-09T15:46:54;-11650.84;;;-142.29;100.00
7748;BME280;3918;42.564;23.164;2022-09-09T15:49:22;-11650.84;;;-142.29;100.00
7748;BME280;3918;42.564;23.164;2022-09-09T15:51:52;-11650.84;;;-142.29;100.00
7748;BME280;3918;42.564;23.164;2022-09-09T15:54:20;-11650.84;;;-142.29;100.00
7748;BME280;3918;42.564;23.164;2022-09-09T15:56:51;-11650.84;;;-142.29;100.00
7748;BME280;3918;42.564;23.164;2022-09-09T15:59:19;-11650.84;;;-142.29;100.00
7748;BME280;3918;42.564;23.164;2022-09-09T16:01:46;-11650.84;;;-142.29;100.00
7748;BME280;3918;42.564;23.164;2022-09-09T16:04:14;-11650.84;;;-142.29;100.00
7748;BME280;3918;42.564;23.164;2022-09-09T16:06:48;-11650.84;;;-142.29;100.00
7748;BME280;3918;42.564;23.164;2022-09-09T16:09:15;-11650.84;;;-142.29;100.00
7748;BME280;3918;42.564;23.164;2022-09-09T16:11:42;-11650.84;;;-142.29;100.00
7748;BME280;3918;42.564;23.164;2022-09-09T16:14:10;-11650.84;;;-142.29;100.00
7748;BME280;3918;42.564;23.164;2022-09-09T16:16:38;-11650.84;;;-142.29;100.00
7748;BME280;3918;42.564;23.164;2022-09-09T16:19:08;-11650.84;;;-142.29;100.00
7748;BME280;3918;42.564;23.164;2022-09-09T16:21:38;-11650.84;;;-142.29;100.00
7748;BME280;3918;42.564;23.164;2022-09-09T16:24:07;-11650.84;;;-142.29;100.00
7748;BME280;3918;42.564;23.164;2022-09-09T16:26:35;-11650.84;;;-142.29;100.00
7748;BME280;3918;42.564;23.164;2022-09-09T16:29:03;-11650.84;;;-142.29;100.00
7748;BME280;3918;42.564;23.164;2022-09-09T16:31:31;-11650.84;;;-142.29;100.00
7748;BME280;3918;42.564;23.164;2022-09-09T16:33:59;-11650.84;;;-142.29;100.00
7748;BME280;3918;42.564;23.164;2022-09-09T16:36:28;-11650.84;;;-142.29;100.00
7748;BME280;3918;42.564;23.164;2022-09-09T16:38:58;-11650.84;;;-142.29;100.00
7748;BME280;3918;42.564;23.164;2022-09-09T16:41:26;-11650.84;;;-142.29;100.00
7748;BME280;3918;42.564;23.164;2022-09-09T16:43:54;-11650.84;;;-142.29;100.00
7748;BME280;3918;42.564;23.164;2022-09-09T16:46:22;-11650.84;;;-142.29;100.00
7748;BME280;3918;42.564;23.164;2022-09-09T16:48:49;-11650.84;;;-142.29;100.00
7748;BME280;3918;42.564;23.164;2022-09-09T16:51:20;-11650.84;;;-142.29;100.00
7748;BME280;3918;42.564;23.164;2022-09-09T16:53:48;-11650.84;;;-142.29;100.00
7748;BME280;3918;42.564;23.164;2022-09-09T16:56:18;-11650.84;;;-142.29;100.00
7748;BME280;3918;42.564;23.164;2022-09-09T16:58:49;-11650.84;;;-142.29;100.00
7748;BME280;3918;42.564;23.164;2022-09-09T17:01:16;-11650.84;;;-142.29;100.00
7748;BME280;3918;42.564;23.164;2022-09-09T17:03:43;-11650.84;;;-142.29;100.00
7748;BME280;3918;42.564;23.164;2022-09-09T17:06:10;-11650.84;;;-142.29;100.00
7748;BME280;3918;42.564;23.164;2022-09-09T17:08:39;-11650.84;;;-142.29;100.00
7748;BME280;3918;42.564;23.164;2022-09-09T17:11:11;-11650.84;;;-142.29;100.00
7748;BME280;3918;42.564;23.164;2022-09-09T17:13:39;-11650.84;;;-142.29;100.00
7748;BME280;3918;42.564;23.164;2022-09-09T17:16:06;-11650.84;;;-142.29;100.00
7748;BME280;3918;42.564;23.164;2022-09-09T17:18:34;-11650.84;;;-142.29;100.00
7748;BME280;3918;42.564;23.164;2022-09-09T17:21:03;-11650.84;;;-142.29;100.00
7748;BME280;3918;42.564;23.164;2022-09-09T17:23:29;-11650.84;;;-142.29;100.00
7748;BME280;3918;42.564;23.164;2022-09-09T17:25:58;-11650.84;;;-142.29;100.00
7748;BME280;3918;42.564;23.164;2022-09-09T17:28:25;-11650.84;;;-142.29;100.00
7748;BME280;3918;42.564;23.164;2022-09-09T17:30:56;-11650.84;;;-142.29;100.00
7748;BME280;3918;42.564;23.164;2022-09-09T17:33:23;-11650.84;;;-142.29;100.00
7748;BME280;3918;42.564;23.164;2022-09-09T17:35:51;-11650.84;;;-142.29;100.00
7748;BME280;3918;42.564;23.164;2022-09-09T17:38:18;-11650.84;;;-142.29;100.00
7748;BME280;3918;42.564;23.164;2022-09-09T17:40:45;-11650.84;;;-142.29;100.00
7748;BME280;3918;42.564;23.164;2022-09-09T17:43:14;-11650.84;;;-142.29;100.00
7748;BME280;3918;42.564;23.164;2022-09-09T17:45:41;-11650.84;;;-142.29;100.00
7748;BME280;3918;42.564;23.164;2022-09-09T17:48:08;-11650.84;;;-142.29;100.00
7748;BME280;3918;42.564;23.164;2022-09-09T17:50:35;-11650.84;;;-142.29;100.00
7748;BME280;3918;42.564;23.164;2022-09-09T17:53:02;-11650.84;;;-142.29;100.00
7748;BME280;3918;42.564;23.164;2022-09-09T17:55:29;-11650.84;;;-142.29;100.00
7748;BME280;3918;42.564;23.164;2022-09-09T17:57:56;-11650.84;;;-142.29;100.00
7748;BME280;3918;42.564;23.164;2022-09-09T18:00:25;-11650.84;;;-142.29;100.00
7748;BME280;3918;42.564;23.164;2022-09-09T18:02:52;-11650.84;;;-142.29;100.00
7748;BME280;3918;42.564;23.164;2022-09-09T18:05:19;-11650.84;;;-142.29;100.00